Time;durP1;ratioP1;P1;durP2;ratioP2;P2;SDS_P1;SDS_P2;PMS_P1;PMS_P2;Temp;Humidity;BMP_temperature;BMP_pressure;BME280_temperature;BME280_humidity;BME280_pressure;Samples;Min_cycle;Max_cycle;Signal;HPM_P1;HPM_P2
2024/01/05 00:02:00;;;;;;;;;;;8.70;99.90;;;;;;2621189;47;19947;-71
2024/01/05 00:04:30;;;;;;;;;;;8.70;99.90;;;;;;2621335;54;19953;-70
2024/01/05 00:07:00;;;;;;;;;;;8.70;99.90;;;;;;2622901;54;20465;-71
2024/01/05 00:09:29;;;;;;;;;;;8.70;99.90;;;;;;2621667;47;19988;-71
2024/01/05 00:11:59;;;;;;;;;;;8.70;99.90;;;;;;2617829;54;20030;-71
2024/01/05 00:14:32;;;;;;;;;;;8.60;99.90;;;;;;2616348;47;19950;-71
2024/01/05 00:17:05;;;;;;;;;;;8.60;99.90;;;;;;2619312;54;19958;-72
2024/01/05 00:19:35;;;;;;;;;;;8.60;99.90;;;;;;2620931;47;19953;-71
2024/01/05 00:22:06;;;;;;;;;;;8.60;99.90;;;;;;2621407;54;19947;-71
2024/01/05 00:24:37;;;;;;;;;;;8.70;99.90;;;;;;2620150;54;19946;-71
2024/01/05 00:27:07;;;;;;;;;;;8.70;99.90;;;;;;2618516;54;19962;-70
2024/01/05 00:29:37;;;;;;;;;;;8.70;99.90;;;;;;2616849;54;19996;-71
2024/01/05 00:32:09;;;;;;;;;;;8.70;99.90;;;;;;2618358;54;19939;-71
2024/01/05 00:34:38;;;;;;;;;;;8.70;99.90;;;;;;2617179;47;20425;-71
2024/01/05 00:37:09;;;;;;;;;;;8.70;99.90;;;;;;2616925;39;20611;-71
2024/01/05 00:39:40;;;;;;;;;;;8.70;99.90;;;;;;2615642;54;19939;-71
2024/01/05 00:42:10;;;;;;;;;;;8.80;99.90;;;;;;2617582;54;19950;-71
2024/01/05 00:44:39;;;;;;;;;;;8.80;99.90;;;;;;2616672;54;19951;-71
2024/01/05 00:47:12;;;;;;;;;;;8.80;99.90;;;;;;2619135;54;19964;-70
2024/01/05 00:49:41;;;;;;;;;;;8.70;99.90;;;;;;2618745;54;20444;-70
2024/01/05 00:52:11;;;;;;;;;;;8.70;99.90;;;;;;2617932;49;19947;-70
2024/01/05 00:54:41;;;;;;;;;;;8.70;99.90;;;;;;2616598;47;19947;-71
2024/01/05 00:57:10;;;;;;;;;;;8.70;99.90;;;;;;2616702;47;19946;-71
2024/01/05 00:59:40;;;;;;;;;;;8.70;99.90;;;;;;2616500;54;20092;-71
2024/01/05 01:02:13;;;;;;;;;;;8.70;99.90;;;;;;2616657;47;19938;-70
2024/01/05 01:04:42;;;;;;;;;;;8.70;99.90;;;;;;2616583;54;19959;-70
2024/01/05 01:07:12;;;;;;;;;;;8.70;99.90;;;;;;2616222;47;19991;-70
2024/01/05 01:09:41;;;;;;;;;;;8.70;99.90;;;;;;2616765;47;19939;-70
2024/01/05 01:12:11;;;;;;;;;;;8.70;99.90;;;;;;2617404;54;19938;-70
2024/01/05 01:14:41;;;;;;;;;;;8.70;99.90;;;;;;2616378;48;19982;-71
2024/01/05 01:17:13;;;;;;;;;;;8.70;99.90;;;;;;2616715;39;20415;-71
2024/01/05 01:19:43;;;;;;;;;;;8.70;99.90;;;;;;2616326;54;19992;-71
2024/01/05 01:22:12;;;;;;;;;;;8.60;99.90;;;;;;2617187;47;19951;-71
2024/01/05 01:24:42;;;;;;;;;;;8.60;99.90;;;;;;2616012;54;20657;-71
2024/01/05 01:27:11;;;;;;;;;;;8.60;99.90;;;;;;2616462;54;19953;-71
2024/01/05 01:29:41;;;;;;;;;;;8.60;99.90;;;;;;2616709;54;19953;-71
2024/01/05 01:32:14;;;;;;;;;;;8.60;99.90;;;;;;2617394;47;19946;-70
2024/01/05 01:34:44;;;;;;;;;;;8.60;99.90;;;;;;2615798;54;19946;-70
2024/01/05 01:37:13;;;;;;;;;;;8.60;99.90;;;;;;2617909;54;19949;-71
2024/01/05 01:39:44;;;;;;;;;;;8.50;99.90;;;;;;2617318;54;19938;-70
2024/01/05 01:42:13;;;;;;;;;;;8.70;99.90;;;;;;2618155;54;20482;-71
2024/01/05 01:44:43;;;;;;;;;;;8.60;99.90;;;;;;2616865;54;19947;-70
2024/01/05 01:47:15;;;;;;;;;;;8.50;99.90;;;;;;2616729;54;20454;-71
2024/01/05 01:49:45;;;;;;;;;;;8.50;99.90;;;;;;2616652;54;19947;-73
2024/01/05 01:52:15;;;;;;;;;;;8.50;99.90;;;;;;2616320;54;20523;-71
2024/01/05 01:54:45;;;;;;;;;;;8.50;99.90;;;;;;2617181;54;19953;-71
2024/01/05 01:57:17;;;;;;;;;;;8.40;99.90;;;;;;2616483;54;19947;-70
2024/01/05 01:59:47;;;;;;;;;;;8.40;99.90;;;;;;2616171;54;19950;-71
2024/01/05 02:02:19;;;;;;;;;;;8.40;99.90;;;;;;2615915;46;19966;-71
2024/01/05 02:04:47;;;;;;;;;;;8.40;99.90;;;;;;2616960;47;20028;-71
2024/01/05 02:07:17;;;;;;;;;;;8.30;99.90;;;;;;2616801;47;19958;-71
2024/01/05 02:09:46;;;;;;;;;;;8.30;99.90;;;;;;2616935;54;20433;-71
2024/01/05 02:12:16;;;;;;;;;;;8.30;99.90;;;;;;2617799;54;19971;-71
2024/01/05 02:14:46;;;;;;;;;;;8.30;99.90;;;;;;2616493;54;19939;-71
2024/01/05 02:17:31;;;;;;;;;;;9.30;99.90;;;;;;2617335;54;19946;-71
2024/01/05 02:20:04;;;;;;;;;;;8.30;99.90;;;;;;2616175;54;19943;-71
2024/01/05 02:22:35;;;;;;;;;;;8.30;99.90;;;;;;2615795;54;19946;-71
2024/01/05 02:25:07;;;;;;;;;;;8.30;99.90;;;;;;2616685;47;20456;-71
2024/01/05 02:27:37;;;;;;;;;;;8.30;99.90;;;;;;2616463;47;19938;-71
2024/01/05 02:30:07;;;;;;;;;;;8.20;99.90;;;;;;2617250;54;19938;-72
2024/01/05 02:32:37;;;;;;;;;;;8.20;99.90;;;;;;2616953;54;19938;-69
2024/01/05 02:35:07;;;;;;;;;;;8.20;99.90;;;;;;2615856;54;19968;-71
2024/01/05 02:37:36;;;;;;;;;;;8.20;99.90;;;;;;2620554;54;20061;-71
2024/01/05 02:40:09;;;;;;;;;;;8.20;99.90;;;;;;2620262;47;20015;-70
2024/01/05 02:42:39;;;;;;;;;;;8.20;99.90;;;;;;2616795;54;19947;-71
2024/01/05 02:45:10;;;;;;;;;;;8.20;99.90;;;;;;2617381;47;19953;-72
2024/01/05 02:47:39;;;;;;;;;;;8.20;99.90;;;;;;2614932;54;19953;-72
2024/01/05 02:50:10;;;;;;;;;;;8.10;99.90;;;;;;2615733;47;20045;-70
2024/01/05 02:52:39;;;;;;;;;;;8.20;99.90;;;;;;2616635;39;20411;-70
2024/01/05 02:55:12;;;;;;;;;;;8.10;99.90;;;;;;2617188;47;19958;-72
2024/01/05 02:57:42;;;;;;;;;;;8.10;99.90;;;;;;2618588;46;19972;-70
2024/01/05 03:00:12;;;;;;;;;;;8.20;99.90;;;;;;2618146;47;19946;-72
2024/01/05 03:02:42;;;;;;;;;;;8.10;99.90;;;;;;2618258;39;20375;-70
2024/01/05 03:05:11;;;;;;;;;;;8.10;99.90;;;;;;2616499;54;19946;-72
2024/01/05 03:07:42;;;;;;;;;;;8.10;99.90;;;;;;2617502;54;19946;-69
2024/01/05 03:10:14;;;;;;;;;;;8.10;99.90;;;;;;2617088;39;20446;-72
2024/01/05 03:12:44;;;;;;;;;;;8.10;99.90;;;;;;2615858;54;19953;-71
2024/01/05 03:15:13;;;;;;;;;;;8.10;99.90;;;;;;2615259;54;19947;-72
2024/01/05 03:17:43;;;;;;;;;;;8.10;99.90;;;;;;2618224;54;19954;-71
2024/01/05 03:20:14;;;;;;;;;;;8.00;99.90;;;;;;2616865;54;19939;-71
2024/01/05 03:22:44;;;;;;;;;;;8.00;99.90;;;;;;2615958;54;19946;-71
2024/01/05 03:25:16;;;;;;;;;;;8.00;99.90;;;;;;2616406;54;19946;-71
2024/01/05 03:27:46;;;;;;;;;;;8.00;99.90;;;;;;2617042;54;20472;-71
2024/01/05 03:30:16;;;;;;;;;;;7.90;99.90;;;;;;2616115;54;19972;-71
2024/01/05 03:32:46;;;;;;;;;;;7.80;99.90;;;;;;2616166;54;19943;-71
2024/01/05 03:35:15;;;;;;;;;;;7.80;99.90;;;;;;2616257;54;19939;-71
2024/01/05 03:37:45;;;;;;;;;;;7.70;99.90;;;;;;2616479;54;19945;-71
2024/01/05 03:40:17;;;;;;;;;;;7.70;99.90;;;;;;2616493;54;19946;-71
2024/01/05 03:42:47;;;;;;;;;;;7.70;99.90;;;;;;2616945;54;19973;-70
2024/01/05 03:45:17;;;;;;;;;;;7.70;99.90;;;;;;2615841;54;19957;-72
2024/01/05 03:47:46;;;;;;;;;;;7.70;99.90;;;;;;2616941;54;19939;-72
2024/01/05 03:50:16;;;;;;;;;;;7.80;99.90;;;;;;2616987;54;19969;-71
2024/01/05 03:52:46;;;;;;;;;;;7.70;99.90;;;;;;2616364;54;19946;-70
2024/01/05 03:55:18;;;;;;;;;;;7.60;99.90;;;;;;2616957;54;19946;-70
2024/01/05 03:57:48;;;;;;;;;;;7.70;99.90;;;;;;2618297;54;19947;-70
2024/01/05 04:00:18;;;;;;;;;;;7.70;99.90;;;;;;2616409;47;19947;-70
2024/01/05 04:02:48;;;;;;;;;;;7.70;99.90;;;;;;2615931;47;19946;-71
2024/01/05 04:05:17;;;;;;;;;;;7.70;99.90;;;;;;2616362;47;20034;-70
2024/01/05 04:07:47;;;;;;;;;;;7.70;99.90;;;;;;2614035;54;19946;-70
2024/01/05 04:10:19;;;;;;;;;;;7.80;99.90;;;;;;2616277;54;19954;-70
2024/01/05 04:12:49;;;;;;;;;;;7.70;99.90;;;;;;2618456;47;19961;-79
2024/01/05 04:15:19;;;;;;;;;;;7.70;99.90;;;;;;2629431;47;19942;-78
2024/01/05 04:17:50;;;;;;;;;;;7.00;99.90;;;;;;2599080;54;21181;-83
2024/01/05 04:20:20;;;;;;;;;;;7.70;99.90;;;;;;2629464;54;19949;-80
2024/01/05 04:22:49;;;;;;;;;;;7.70;99.90;;;;;;2629629;54;19942;-80
2024/01/05 04:25:22;;;;;;;;;;;7.70;99.90;;;;;;2629702;46;19959;-79
2024/01/05 04:27:52;;;;;;;;;;;7.70;99.90;;;;;;2629526;47;19949;-80
2024/01/05 04:30:22;;;;;;;;;;;9.00;99.90;;;;;;2629395;47;19927;-80
2024/01/05 04:32:52;;;;;;;;;;;7.80;99.90;;;;;;2629743;54;19950;-79
2024/01/05 04:35:22;;;;;;;;;;;7.80;99.90;;;;;;2629460;47;19994;-79
2024/01/05 04:37:53;;;;;;;;;;;7.80;99.90;;;;;;2629509;47;19974;-79
2024/01/05 04:40:25;;;;;;;;;;;7.80;99.90;;;;;;2629523;47;19986;-80
2024/01/05 04:42:55;;;;;;;;;;;8.20;99.90;;;;;;2629271;47;19942;-79
2024/01/05 04:45:25;;;;;;;;;;;8.10;99.90;;;;;;2629312;54;19973;-79
2024/01/05 04:47:55;;;;;;;;;;;7.70;99.90;;;;;;2629525;47;19955;-80
2024/01/05 04:50:25;;;;;;;;;;;7.70;99.90;;;;;;2629343;47;19943;-81
2024/01/05 04:52:55;;;;;;;;;;;7.70;99.90;;;;;;2629492;46;19949;-79
2024/01/05 04:55:28;;;;;;;;;;;7.70;99.90;;;;;;2629469;54;19933;-79
2024/01/05 04:57:58;;;;;;;;;;;7.70;99.90;;;;;;2629593;46;20905;-80
2024/01/05 05:00:28;;;;;;;;;;;7.70;99.90;;;;;;2629518;54;19927;-80
2024/01/05 05:02:58;;;;;;;;;;;7.60;99.90;;;;;;2629539;47;19934;-79
2024/01/05 05:05:28;;;;;;;;;;;7.60;99.90;;;;;;2631992;39;20694;-80
2024/01/05 05:07:58;;;;;;;;;;;7.60;99.90;;;;;;2629531;47;19951;-79
2024/01/05 05:10:31;;;;;;;;;;;8.60;99.90;;;;;;2629335;47;19968;-80
2024/01/05 05:13:01;;;;;;;;;;;7.60;99.90;;;;;;2629781;54;19973;-80
2024/01/05 05:15:31;;;;;;;;;;;7.60;99.90;;;;;;2629521;47;19968;-80
2024/01/05 05:18:02;;;;;;;;;;;7.60;99.90;;;;;;2629302;47;19968;-80
2024/01/05 05:20:32;;;;;;;;;;;7.60;99.90;;;;;;2629620;47;19942;-79
2024/01/05 05:23:02;;;;;;;;;;;7.60;99.90;;;;;;2629347;54;19942;-80
2024/01/05 05:25:35;;;;;;;;;;;7.60;99.90;;;;;;2628983;54;19943;-83
2024/01/05 05:28:06;;;;;;;;;;;7.60;99.90;;;;;;2628830;47;19939;-84
2024/01/05 05:30:36;;;;;;;;;;;7.60;99.90;;;;;;2628694;54;19933;-83
2024/01/05 05:33:06;;;;;;;;;;;7.60;99.90;;;;;;2628867;47;19933;-84
2024/01/05 05:35:36;;;;;;;;;;;7.60;99.90;;;;;;2629098;54;19922;-84
2024/01/05 05:38:07;;;;;;;;;;;7.70;99.90;;;;;;2629393;54;19939;-80
2024/01/05 05:40:39;;;;;;;;;;;7.70;99.90;;;;;;2629552;47;19952;-80
2024/01/05 05:43:09;;;;;;;;;;;7.70;99.90;;;;;;2629389;54;19943;-79
2024/01/05 05:45:40;;;;;;;;;;;7.70;99.90;;;;;;2629469;54;20010;-80
2024/01/05 05:48:10;;;;;;;;;;;7.70;99.90;;;;;;2629391;47;20689;-80
2024/01/05 05:50:40;;;;;;;;;;;7.70;99.90;;;;;;2629482;47;19942;-80
2024/01/05 05:53:11;;;;;;;;;;;8.10;99.90;;;;;;2629553;47;19943;-80
2024/01/05 05:55:44;;;;;;;;;;;7.70;99.90;;;;;;2629558;47;19943;-82
2024/01/05 05:58:13;;;;;;;;;;;7.80;99.90;;;;;;2629597;47;19927;-79
2024/01/05 06:00:43;;;;;;;;;;;7.80;99.90;;;;;;2629385;47;19997;-79
2024/01/05 06:03:13;;;;;;;;;;;7.80;99.90;;;;;;2629243;47;19969;-80
2024/01/05 06:05:44;;;;;;;;;;;7.70;99.90;;;;;;2629386;54;19949;-81
2024/01/05 06:08:14;;;;;;;;;;;7.80;99.90;;;;;;2629378;47;19950;-80
2024/01/05 06:10:47;;;;;;;;;;;7.80;99.90;;;;;;2629020;47;19966;-83
2024/01/05 06:13:17;;;;;;;;;;;7.80;99.90;;;;;;2629229;47;19934;-83
2024/01/05 06:15:47;;;;;;;;;;;7.70;99.90;;;;;;2628597;54;19939;-84
2024/01/05 06:18:17;;;;;;;;;;;7.80;99.90;;;;;;2628515;46;19991;-83
2024/01/05 06:20:47;;;;;;;;;;;7.80;99.90;;;;;;2628204;47;19931;-83
2024/01/05 06:23:17;;;;;;;;;;;7.80;99.90;;;;;;2626758;47;19952;-83
2024/01/05 06:25:49;;;;;;;;;;;7.80;99.90;;;;;;2630213;39;20458;-83
2024/01/05 06:28:19;;;;;;;;;;;8.00;99.90;;;;;;2628691;39;20307;-83
2024/01/05 06:30:49;;;;;;;;;;;7.90;99.90;;;;;;2627008;47;19946;-84
2024/01/05 06:33:19;;;;;;;;;;;7.80;99.90;;;;;;2627720;47;19954;-84
2024/01/05 06:35:49;;;;;;;;;;;7.80;99.90;;;;;;2628795;46;19943;-84
2024/01/05 06:38:19;;;;;;;;;;;7.70;99.90;;;;;;2629747;54;19942;-84
2024/01/05 06:40:52;;;;;;;;;;;7.70;99.90;;;;;;2629265;46;19938;-84
2024/01/05 06:43:22;;;;;;;;;;;7.70;99.90;;;;;;2628456;46;19954;-85
2024/01/05 06:45:52;;;;;;;;;;;7.70;99.90;;;;;;2628687;47;20513;-83
2024/01/05 06:48:22;;;;;;;;;;;7.70;99.90;;;;;;2628320;46;19946;-83
2024/01/05 06:50:53;;;;;;;;;;;7.70;99.90;;;;;;2628613;54;19947;-84
2024/01/05 06:53:23;;;;;;;;;;;7.70;99.90;;;;;;2628454;47;19947;-84
2024/01/05 06:55:55;;;;;;;;;;;7.80;99.90;;;;;;2630023;54;19942;-84
2024/01/05 06:58:27;;;;;;;;;;;7.80;99.90;;;;;;2629530;54;19951;-83
2024/01/05 07:00:57;;;;;;;;;;;7.80;99.90;;;;;;2629293;47;19950;-83
2024/01/05 07:03:27;;;;;;;;;;;7.80;99.90;;;;;;2628246;47;20772;-83
2024/01/05 07:05:57;;;;;;;;;;;8.10;99.90;;;;;;2628792;46;19958;-84
2024/01/05 07:08:27;;;;;;;;;;;7.80;99.90;;;;;;2628724;47;19962;-84
2024/01/05 07:11:00;;;;;;;;;;;7.70;99.90;;;;;;2629014;47;19957;-84
2024/01/05 07:13:30;;;;;;;;;;;7.80;99.90;;;;;;2629672;46;19942;-80
2024/01/05 07:16:00;;;;;;;;;;;7.70;99.90;;;;;;2629724;47;19978;-80
2024/01/05 07:18:31;;;;;;;;;;;7.60;99.90;;;;;;2629399;47;19943;-80
2024/01/05 07:21:05;;;;;;;;;;;7.60;99.90;;;;;;2629807;54;19927;-81
2024/01/05 07:23:35;;;;;;;;;;;7.60;99.90;;;;;;2632647;39;20579;-81
2024/01/05 07:26:08;;;;;;;;;;;7.60;99.90;;;;;;2633884;39;20879;-81
2024/01/05 07:28:38;;;;;;;;;;;7.60;99.90;;;;;;2629680;47;19993;-81
2024/01/05 07:31:09;;;;;;;;;;;7.60;99.90;;;;;;2630068;54;19990;-81
2024/01/05 07:33:41;;;;;;;;;;;8.20;99.90;;;;;;2629789;46;19943;-81
2024/01/05 07:36:11;;;;;;;;;;;7.50;99.90;;;;;;2623919;47;19946;-80
2024/01/05 07:38:41;;;;;;;;;;;7.40;99.90;;;;;;2622132;47;19951;-79
2024/01/05 07:41:16;;;;;;;;;;;7.40;99.90;;;;;;2626933;54;19935;-80
2024/01/05 07:43:44;;;;;;;;;;;7.30;99.90;;;;;;2629440;54;19949;-78
2024/01/05 07:46:15;;;;;;;;;;;7.30;99.90;;;;;;2626998;47;19981;-78
2024/01/05 07:48:44;;;;;;;;;;;7.30;99.90;;;;;;2623756;54;20048;-81
2024/01/05 07:51:15;;;;;;;;;;;7.30;99.90;;;;;;2622701;47;19946;-80
2024/01/05 07:53:45;;;;;;;;;;;7.40;99.90;;;;;;2620534;54;19947;-81
2024/01/05 07:56:17;;;;;;;;;;;7.40;99.90;;;;;;2621577;47;19951;-79
2024/01/05 07:58:47;;;;;;;;;;;7.40;99.90;;;;;;2621389;47;19998;-81
2024/01/05 08:01:17;;;;;;;;;;;7.80;99.90;;;;;;2623246;47;19957;-78
2024/01/05 08:03:47;;;;;;;;;;;7.50;99.90;;;;;;2625581;54;19962;-78
2024/01/05 08:06:18;;;;;;;;;;;7.50;99.90;;;;;;2626938;54;19958;-79
2024/01/05 08:08:48;;;;;;;;;;;7.50;99.90;;;;;;2626042;54;19946;-79
2024/01/05 08:11:21;;;;;;;;;;;7.50;99.90;;;;;;2625980;54;19953;-79
2024/01/05 08:13:51;;;;;;;;;;;7.50;99.90;;;;;;2625827;47;19970;-78
2024/01/05 08:16:21;;;;;;;;;;;7.50;99.90;;;;;;2625089;54;19985;-79
2024/01/05 08:18:52;;;;;;;;;;;7.50;99.90;;;;;;2625179;54;19946;-78
2024/01/05 08:21:22;;;;;;;;;;;7.50;99.90;;;;;;2624044;47;20861;-78
2024/01/05 08:23:52;;;;;;;;;;;7.50;99.90;;;;;;2624723;46;19942;-78
2024/01/05 08:26:24;;;;;;;;;;;7.50;99.90;;;;;;2628389;47;19927;-81
2024/01/05 08:28:54;;;;;;;;;;;7.50;99.90;;;;;;2625251;47;19934;-82
2024/01/05 08:31:24;;;;;;;;;;;7.50;99.90;;;;;;2625114;54;19995;-78
2024/01/05 08:33:54;;;;;;;;;;;7.80;99.90;;;;;;2622550;47;19946;-80
2024/01/05 08:36:24;;;;;;;;;;;7.50;99.90;;;;;;2626892;31;20526;-80
2024/01/05 08:38:54;;;;;;;;;;;7.50;99.90;;;;;;2627545;54;19946;-78
2024/01/05 08:41:27;;;;;;;;;;;7.50;99.90;;;;;;2623448;54;20004;-78
2024/01/05 08:43:56;;;;;;;;;;;7.50;99.90;;;;;;2622132;54;19947;-80
2024/01/05 08:46:29;;;;;;;;;;;7.50;99.90;;;;;;2621378;54;19947;-78
2024/01/05 08:48:58;;;;;;;;;;;7.50;99.90;;;;;;2626068;54;19942;-78
2024/01/05 08:51:28;;;;;;;;;;;7.50;99.90;;;;;;2623414;47;19958;-80
2024/01/05 08:53:59;;;;;;;;;;;7.60;99.90;;;;;;2621953;46;19951;-80
2024/01/05 08:56:31;;;;;;;;;;;7.60;99.90;;;;;;2625704;47;19951;-84
2024/01/05 08:59:01;;;;;;;;;;;7.60;99.90;;;;;;2623982;54;19947;-80
2024/01/05 09:01:32;;;;;;;;;;;7.60;99.90;;;;;;2621173;47;19947;-81
2024/01/05 09:04:05;;;;;;;;;;;7.70;99.90;;;;;;2621736;54;20029;-79
2024/01/05 09:06:36;;;;;;;;;;;7.50;99.90;;;;;;2624960;47;19945;-79
2024/01/05 09:09:06;;;;;;;;;;;7.50;99.90;;;;;;2625385;47;19992;-83
2024/01/05 09:11:41;;;;;;;;;;;7.50;99.90;;;;;;2628098;47;19947;-84
2024/01/05 09:14:11;;;;;;;;;;;7.40;99.90;;;;;;2625156;47;19950;-81
2024/01/05 09:16:41;;;;;;;;;;;7.30;99.90;;;;;;2623692;54;19939;-80
2024/01/05 09:19:11;;;;;;;;;;;7.30;99.90;;;;;;2626504;47;19942;-80
2024/01/05 09:21:41;;;;;;;;;;;7.40;99.90;;;;;;2626782;39;20903;-82
2024/01/05 09:24:12;;;;;;;;;;;7.40;99.90;;;;;;2626259;47;20003;-79
2024/01/05 09:26:46;;;;;;;;;;;7.50;99.90;;;;;;2623898;54;19939;-82
2024/01/05 09:29:16;;;;;;;;;;;7.50;99.90;;;;;;2623478;54;20042;-81
2024/01/05 09:31:50;;;;;;;;;;;7.60;99.90;;;;;;2622650;47;20470;-84
2024/01/05 09:34:20;;;;;;;;;;;7.70;99.90;;;;;;2623993;47;20002;-81
2024/01/05 09:36:51;;;;;;;;;;;7.80;99.90;;;;;;2624412;47;19947;-81
2024/01/05 09:39:21;;;;;;;;;;;7.90;99.90;;;;;;2626476;47;19943;-79
2024/01/05 09:41:54;;;;;;;;;;;7.70;99.90;;;;;;2628594;47;19973;-80
2024/01/05 09:44:24;;;;;;;;;;;8.00;99.90;;;;;;2628225;47;19962;-78
2024/01/05 09:46:55;;;;;;;;;;;8.00;99.90;;;;;;2628107;47;19942;-79
2024/01/05 09:49:25;;;;;;;;;;;8.10;99.90;;;;;;2626101;47;19947;-80
2024/01/05 09:51:56;;;;;;;;;;;8.20;99.90;;;;;;2626474;47;19953;-78
2024/01/05 09:54:27;;;;;;;;;;;8.20;99.90;;;;;;2628442;47;19943;-78
2024/01/05 09:57:02;;;;;;;;;;;8.20;99.90;;;;;;2628386;47;19947;-79
2024/01/05 09:59:34;;;;;;;;;;;8.30;99.90;;;;;;2624961;54;20473;-80
2024/01/05 10:02:13;;;;;;;;;;;8.30;99.90;;;;;;2625642;47;19938;-79
2024/01/05 10:04:46;;;;;;;;;;;8.30;99.90;;;;;;2626844;47;19963;-79
2024/01/05 10:07:16;;;;;;;;;;;8.30;99.90;;;;;;2629061;54;19950;-79
2024/01/05 10:09:53;;;;;;;;;;;8.30;99.90;;;;;;2628783;54;19939;-80
2024/01/05 10:12:26;;;;;;;;;;;8.30;99.90;;;;;;2623836;47;19986;-78
2024/01/05 10:15:04;;;;;;;;;;;8.30;99.90;;;;;;2628869;54;20624;-78
2024/01/05 10:17:34;;;;;;;;;;;8.40;99.90;;;;;;2630266;54;19938;-78
2024/01/05 10:20:21;;;;;;;;;;;8.40;99.90;;;;;;2630669;47;19957;-79
2024/01/05 10:22:51;;;;;;;;;;;8.40;99.90;;;;;;2630617;47;19962;-81
2024/01/05 10:25:23;;;;;;;;;;;8.40;99.90;;;;;;2630486;54;20672;-80
2024/01/05 10:27:56;;;;;;;;;;;8.40;99.90;;;;;;2630811;54;19949;-79
2024/01/05 10:30:28;;;;;;;;;;;8.40;99.90;;;;;;2630829;54;19938;-79
2024/01/05 10:33:07;;;;;;;;;;;8.40;99.90;;;;;;2630649;47;19991;-80
2024/01/05 10:35:37;;;;;;;;;;;8.40;99.90;;;;;;2630964;47;19957;-81
2024/01/05 10:38:08;;;;;;;;;;;8.50;99.90;;;;;;2630917;54;20605;-80
2024/01/05 10:40:37;;;;;;;;;;;8.50;99.90;;;;;;2636420;39;20204;-80
2024/01/05 10:43:14;;;;;;;;;;;8.50;99.90;;;;;;2630697;47;19949;-83
2024/01/05 10:45:45;;;;;;;;;;;8.50;99.90;;;;;;2630842;47;19965;-81
2024/01/05 10:48:16;;;;;;;;;;;8.40;99.90;;;;;;2630480;47;19998;-80
2024/01/05 10:50:48;;;;;;;;;;;8.40;99.90;;;;;;2630732;46;20530;-82
2024/01/05 10:53:19;;;;;;;;;;;8.20;99.90;;;;;;2630866;54;19927;-82
2024/01/05 10:55:49;;;;;;;;;;;8.20;99.90;;;;;;2630717;47;19942;-82
2024/01/05 10:58:22;;;;;;;;;;;8.10;99.90;;;;;;2630722;47;19942;-81
2024/01/05 11:00:54;;;;;;;;;;;8.20;99.90;;;;;;2630740;47;19943;-82
2024/01/05 11:03:26;;;;;;;;;;;8.30;99.90;;;;;;2630535;54;19933;-84
2024/01/05 11:05:54;;;;;;;;;;;8.30;99.90;;;;;;2628057;54;19942;-82
2024/01/05 11:08:29;;;;;;;;;;;8.40;99.90;;;;;;2630049;47;19951;-81
2024/01/05 11:11:07;;;;;;;;;;;8.50;99.90;;;;;;2629906;47;20966;-84
2024/01/05 11:13:49;;;;;;;;;;;8.50;99.90;;;;;;2630017;54;19943;-82
2024/01/05 11:16:46;;;;;;;;;;;8.60;99.90;;;;;;2630213;54;19966;-82
2024/01/05 11:19:27;;;;;;;;;;;8.70;99.90;;;;;;2629903;47;19927;-82
2024/01/05 11:21:59;;;;;;;;;;;8.80;99.90;;;;;;2630366;47;19966;-83
2024/01/05 11:24:30;;;;;;;;;;;8.90;99.90;;;;;;2630242;51;19962;-84
2024/01/05 11:27:00;;;;;;;;;;;11.30;99.90;;;;;;2630056;54;19990;-81
2024/01/05 11:29:45;;;;;;;;;;;10.70;99.90;;;;;;2629756;54;19942;-81
2024/01/05 11:32:34;;;;;;;;;;;9.10;99.90;;;;;;2629800;54;19926;-83
2024/01/05 11:35:04;;;;;;;;;;;9.20;99.90;;;;;;2629964;54;19942;-81
2024/01/05 11:37:34;;;;;;;;;;;9.30;99.90;;;;;;2630485;47;19949;-84
2024/01/05 11:40:05;;;;;;;;;;;9.40;99.90;;;;;;2630436;54;19943;-84
2024/01/05 11:42:35;;;;;;;;;;;9.40;99.90;;;;;;2630416;54;19957;-83
2024/01/05 11:45:07;;;;;;;;;;;9.50;99.90;;;;;;2630456;54;19927;-82
2024/01/05 11:47:47;;;;;;;;;;;9.60;99.90;;;;;;2629959;46;19949;-84
2024/01/05 17:06:04;;;;;;;;;;;9.60;99.90;;;;;;2593456;39;21143;-80
2024/01/05 17:08:47;;;;;;;;;;;8.90;99.90;;;;;;2623074;54;20460;-80
2024/01/05 17:11:17;;;;;;;;;;;8.90;99.90;;;;;;2628757;47;19927;-79
2024/01/05 17:17:24;;;;;;;;;;;8.80;99.90;;;;;;2624329;46;19938;-79
2024/01/05 17:19:54;;;;;;;;;;;8.30;99.90;;;;;;2622771;54;20055;-83
2024/01/05 17:22:47;;;;;;;;;;;8.70;99.90;;;;;;2621529;47;19946;-79
2024/01/05 17:25:17;;;;;;;;;;;8.70;99.90;;;;;;2622861;47;19974;-80
2024/01/05 17:27:47;;;;;;;;;;;8.60;99.90;;;;;;2622962;54;19953;-80
2024/01/05 17:30:17;;;;;;;;;;;8.60;99.90;;;;;;2624272;54;19993;-79
2024/01/05 17:32:49;;;;;;;;;;;8.60;99.90;;;;;;2625078;47;20496;-82
2024/01/05 17:35:19;;;;;;;;;;;8.60;99.90;;;;;;2629092;47;19942;-82
2024/01/05 17:37:52;;;;;;;;;;;8.60;99.90;;;;;;2628639;54;19946;-81
2024/01/05 17:40:23;;;;;;;;;;;8.50;99.90;;;;;;2625137;47;19947;-84
2024/01/05 17:42:52;;;;;;;;;;;8.50;99.90;;;;;;2626242;54;19946;-82
2024/01/05 17:45:23;;;;;;;;;;;8.50;99.90;;;;;;2614146;54;19957;-71
2024/01/05 17:47:52;;;;;;;;;;;8.30;99.90;;;;;;2607666;47;19947;-73
2024/01/05 17:50:22;;;;;;;;;;;8.40;99.90;;;;;;2608913;54;19953;-71
2024/01/05 17:52:55;;;;;;;;;;;8.10;99.90;;;;;;2607085;54;19972;-72
2024/01/05 17:55:25;;;;;;;;;;;8.30;99.90;;;;;;2607144;47;20405;-71
2024/01/05 17:57:55;;;;;;;;;;;8.30;99.90;;;;;;2609988;54;19947;-71
2024/01/05 18:00:25;;;;;;;;;;;8.30;99.90;;;;;;2608893;47;19946;-71
2024/01/05 18:02:55;;;;;;;;;;;8.30;99.90;;;;;;2607409;39;20042;-71
2024/01/05 18:05:24;;;;;;;;;;;9.00;99.90;;;;;;2607426;47;20049;-71
2024/01/05 18:07:58;;;;;;;;;;;8.40;99.90;;;;;;2606472;47;20398;-71
2024/01/05 18:10:27;;;;;;;;;;;8.10;99.90;;;;;;2615010;54;19958;-71
2024/01/05 18:12:57;;;;;;;;;;;8.10;99.90;;;;;;2616871;47;19946;-73
2024/01/05 18:15:27;;;;;;;;;;;8.00;99.90;;;;;;2617248;54;20369;-69
2024/01/05 18:17:57;;;;;;;;;;;7.90;99.90;;;;;;2617815;54;19947;-72
2024/01/05 18:20:27;;;;;;;;;;;7.80;99.90;;;;;;2619130;39;20356;-71
2024/01/05 18:22:59;;;;;;;;;;;7.70;99.90;;;;;;2618105;54;20008;-70
2024/01/05 18:25:29;;;;;;;;;;;7.60;99.90;;;;;;2618324;47;20460;-69
2024/01/05 18:28:02;;;;;;;;;;;7.50;99.90;;;;;;2619354;54;19958;-72
2024/01/05 18:30:33;;;;;;;;;;;7.60;99.90;;;;;;2622119;54;19950;-71
2024/01/05 18:33:03;;;;;;;;;;;7.60;99.90;;;;;;2622586;54;19957;-70
2024/01/05 18:35:33;;;;;;;;;;;7.50;99.90;;;;;;2619095;54;19953;-69
2024/01/05 18:38:08;;;;;;;;;;;7.60;99.90;;;;;;2619632;54;19938;-69
2024/01/05 18:40:38;;;;;;;;;;;7.50;99.90;;;;;;2617300;54;19946;-71
2024/01/05 18:43:08;;;;;;;;;;;7.50;99.90;;;;;;2617189;39;20360;-70
2024/01/05 18:45:38;;;;;;;;;;;7.60;99.90;;;;;;2616993;47;19946;-70
2024/01/05 18:48:10;;;;;;;;;;;7.50;99.90;;;;;;2616838;47;19947;-71
2024/01/05 18:50:40;;;;;;;;;;;7.50;99.90;;;;;;2617503;54;19953;-71
2024/01/05 18:53:13;;;;;;;;;;;7.50;99.90;;;;;;2616856;47;19991;-71
2024/01/05 18:55:43;;;;;;;;;;;7.50;99.90;;;;;;2617398;39;20388;-70
2024/01/05 18:58:12;;;;;;;;;;;7.50;99.90;;;;;;2617189;39;20345;-70
2024/01/05 19:00:43;;;;;;;;;;;7.40;99.90;;;;;;2616690;47;19947;-71
2024/01/05 19:03:12;;;;;;;;;;;7.40;99.90;;;;;;2617341;54;19950;-71
2024/01/05 19:05:42;;;;;;;;;;;7.40;99.90;;;;;;2616212;47;19954;-71
2024/01/05 19:08:16;;;;;;;;;;;7.30;99.90;;;;;;2616755;54;19939;-71
2024/01/05 19:10:47;;;;;;;;;;;7.30;99.90;;;;;;2616360;54;20532;-71
2024/01/05 19:13:17;;;;;;;;;;;7.30;99.90;;;;;;2617304;54;19946;-71
2024/01/05 19:15:47;;;;;;;;;;;7.20;99.90;;;;;;2618257;46;20355;-71
2024/01/05 19:18:16;;;;;;;;;;;7.20;99.90;;;;;;2617349;54;20437;-69
2024/01/05 19:20:46;;;;;;;;;;;7.20;99.90;;;;;;2617875;54;19954;-69
2024/01/05 19:23:19;;;;;;;;;;;7.20;99.90;;;;;;2620373;54;20461;-69
2024/01/05 19:25:48;;;;;;;;;;;7.00;99.90;;;;;;2619506;54;19939;-74
2024/01/05 19:28:19;;;;;;;;;;;7.20;99.90;;;;;;2618397;54;19939;-74
2024/01/05 19:30:49;;;;;;;;;;;7.00;99.90;;;;;;2623361;39;20316;-74
2024/01/05 19:33:19;;;;;;;;;;;6.90;99.90;;;;;;2620299;54;20047;-73
2024/01/05 19:35:49;;;;;;;;;;;6.90;99.90;;;;;;2617543;54;19943;-72
2024/01/05 19:38:22;;;;;;;;;;;6.90;99.90;;;;;;2617293;47;19939;-72
2024/01/05 19:40:51;;;;;;;;;;;6.90;99.90;;;;;;2616542;46;19943;-74
2024/01/05 19:43:21;;;;;;;;;;;6.80;99.90;;;;;;2616382;54;19946;-72
2024/01/05 19:45:52;;;;;;;;;;;6.80;99.90;;;;;;2618435;39;20335;-71
2024/01/05 19:48:22;;;;;;;;;;;6.70;99.90;;;;;;2617488;46;19977;-72
2024/01/05 19:50:52;;;;;;;;;;;6.70;99.90;;;;;;2619223;47;19939;-73
2024/01/05 19:53:24;;;;;;;;;;;6.70;99.90;;;;;;2618443;54;19953;-73
2024/01/05 19:55:54;;;;;;;;;;;6.70;99.90;;;;;;2616649;54;19946;-73
2024/01/05 19:58:24;;;;;;;;;;;6.70;99.90;;;;;;2618699;47;19953;-73
2024/01/05 20:00:53;;;;;;;;;;;6.70;99.90;;;;;;2617124;54;19954;-72
2024/01/05 20:03:24;;;;;;;;;;;6.70;99.90;;;;;;2616280;54;20069;-72
2024/01/05 20:05:54;;;;;;;;;;;7.40;99.90;;;;;;2617325;47;19947;-71
2024/01/05 20:08:27;;;;;;;;;;;6.70;99.90;;;;;;2618712;39;20415;-72
2024/01/05 20:10:57;;;;;;;;;;;6.80;99.90;;;;;;2620477;47;19953;-71
2024/01/05 20:13:27;;;;;;;;;;;6.70;99.90;;;;;;2621748;54;19947;-74